Portada
METAR-TAF:

METAR-TAF

Aeroports :

Riberalta, Bolívia

latitud: 11-00S, longitud: 066-07W, altitud: 141 m

Observació

L'informe es va fer fa 1 hora i 0 minuts, a les 21:00 UTC
Vent 12 kt del Nord/Nord-Oest
Temperatura 29°C
Humitat 74%
Pressió 1006 hPa
Visibilitat: 8000 m
Núvols disperses a una alçada de 2000 ft
Escasses núvols a una alçada de 2300 ft, Cumulonimbus.
Cel ennuvolat a una alçada de 20000 ft
xàfecs en les proximitats

METAR: SLRI 262100Z 33012KT 8000 VCSH SCT020 FEW023CB BKN200 29/24 Q1006

Hora: 18:00 (22:00 UTC)


TAF: manca

Observacions i pronòstics meteorològics de més de 4000 aeroports (METAR i TAF).

Les estacions disponibles són els punts grocs i vermells al mapa.

Posi el ratolí al punt desitjat per veure el nom de l'estació.

Feu clic per veure les observacions i els pronòstics meteorològics.

Per canviar el mapa: feu clic els botons verds amb una creu de color negre per apropar; al botó verd amb un guió per allunyar la imatge; o en les fletxes verdes per a mapes adjacents.


METAR-TAF: